• Join FlightAware (Why Join?)
  • Login
  • US Flag 
09:30PM EDT


 

Airport Tracker/Info


-or-


 

Live Flight TrackerFlight Track Log ✈ UPS207 ✈ 06-Sep-2013 ✈ KPHL - EDDK / CGN

Flight Track Log - Related Links

Times and Time Zones

All times are in EDT time to prevent confusion due to time zone crossing. See the UPS207 flight status page for this flight to view local times or setup timezone preferences in your user account.

Time Position Orientation Groundspeed Altitude Reporting Facility
EDT Latitude Longitude Course Direction KTS MPH feet Rate Location/Type
09:13AM 39.8420 -75.3010 219° Southwest 194 223 1,400  Level FlightAware
09:14AM 39.8220 -75.3210 218° Southwest 237 273 1,900 1,380 Climbing FlightAware
09:14AM 39.8080 -75.3350 218° Southwest 255 293 2,300 2,880 Climbing FlightAware
09:14AM 39.7820 -75.3600 216° Southwest 254 292 4,000 3,540 Climbing FlightAware
09:14AM 39.7770 -75.3630 205° Southwest 255 293 4,200 3,240 Climbing FlightAware
09:14AM 39.7690 -75.3660 196° South 256 295 4,600 2,700 Climbing FlightAware
09:15AM 39.7640 -75.3660 180° South 261 300 4,700 2,220 Climbing FlightAware
09:15AM 39.7360 -75.3490 155° Southeast 289 333 5,700 2,340 Climbing FlightAware
09:15AM 39.7300 -75.3390 128° Southeast 293 337 6,000 2,400 Climbing FlightAware
09:15AM 39.7260 -75.3280 115° Southeast 294 338 6,300 2,700 Climbing FlightAware
09:15AM 39.7240 -75.3220 113° Southeast 295 339 6,500 3,000 Climbing FlightAware
09:15AM 39.7220 -75.3050 99° East 296 341 6,900 2,340 Climbing FlightAware
09:16AM 39.7240 -75.2800 84° East 295 339 7,600 3,300 Climbing FlightAware
09:16AM 39.7290 -75.2380 81° East 287 330 9,100 3,840 Climbing FlightAware
09:16AM 39.7330 -75.2140 78° East 292 336 9,800 2,100 Climbing FlightAware
09:17AM 39.7410 -75.1470 81° East 321 369 10,900 1,440 Climbing FlightAware
09:18AM 39.7500 -75.0740 81° East 359 413 11,600 660 Climbing FlightAware
09:18AM 39.7580 -75.0090 81° East 386 444 11,700 60 Climbing FlightAware
09:19AM 39.7700 -74.9110 81° East 405 466 11,700 600 Level FlightAware
09:19AM 39.7810 -74.8260 80° East 407 468 12,500 1,740 Climbing FlightAware
09:20AM 39.7900 -74.7500 81° East 420 483 13,700 2,460 Climbing FlightAware
09:20AM 39.8000 -74.6590 82° East 425 489 15,300 2,640 Climbing FlightAware
09:21AM 39.8070 -74.5760 84° East 434 499 16,700 2,400 Climbing FlightAware
09:22AM 39.8270 -74.4810 75° East 440 506 18,100 1,860 Climbing FlightAware
09:22AM 39.8560 -74.3790 70° East 457 526 19,300 1,800 Climbing FlightAware
09:23AM 39.8900 -74.2810 66° East 465 535 20,600 2,040 Climbing FlightAware
09:24AM 39.9290 -74.1690 66° East 473 544 22,000 1,860 Climbing FlightAware
09:24AM 39.9580 -74.0860 65° Northeast 480 552 22,900 1,680 Climbing FlightAware
09:25AM 39.9870 -74.0040 65° Northeast 485 558 23,900 1,800 Climbing FlightAware
09:25AM 40.0250 -73.8950 65° Northeast 491 565 25,100 1,860 Climbing FlightAware
09:26AM 40.0540 -73.8130 65° Northeast 499 574 26,000 1,680 Climbing FlightAware
09:27AM 40.0930 -73.7000 66° East 504 580 27,100 1,860 Climbing FlightAware
09:27AM 40.1270 -73.6020 66° East 502 578 28,300 1,800 Climbing FlightAware
09:28AM 40.1560 -73.5160 66° East 501 577 29,200 1,440 Climbing FlightAware
09:28AM 40.1920 -73.4120 66° East 506 582 30,000 1,440 Climbing FlightAware
09:29AM 40.2280 -73.3050 66° East 504 580 31,000 1,380 Climbing FlightAware
09:29AM 40.2540 -73.2300 66° East 505 581 31,600 1,200 Climbing FlightAware
09:30AM 40.2940 -73.1130 66° East 507 583 32,400 1,140 Climbing FlightAware
09:31AM 40.3270 -73.0130 67° East 508 585 33,000 480 Climbing FlightAware
09:31AM 40.3580 -72.9210 66° East 514 592 33,000  Level FlightAware
09:32AM 40.3950 -72.8120 66° East 515 593 33,000  Level FlightAware
09:32AM 40.4270 -72.7150 67° East 511 588 33,000  Level FlightAware
09:33AM 40.4560 -72.6300 66° East 508 585 33,000  Level FlightAware
09:34AM 40.4940 -72.5130 67° East 503 579 33,000  Level FlightAware
09:34AM 40.5230 -72.4270 66° East 501 577 33,000  Level FlightAware
09:35AM 40.5570 -72.3230 67° East 499 574 33,000  Level FlightAware
09:35AM 40.5900 -72.2230 66° East 498 573 33,000  Level FlightAware
09:36AM 40.6200 -72.1330 66° East 497 572 33,000  Level FlightAware
09:36AM 40.6510 -72.0370 67° East 497 572 33,000  Level FlightAware
09:37AM 40.6830 -71.9400 66° East 498 573 33,000  Level FlightAware
09:38AM 40.7190 -71.8270 67° East 499 574 33,000  Level FlightAware
09:38AM 40.7530 -71.7220 67° East 500 575 33,000  Level FlightAware
09:39AM 40.7850 -71.6220 67° East 502 578 33,000  Level FlightAware
09:39AM 40.8130 -71.5350 67° East 504 580 33,000  Level FlightAware
09:40AM 40.8550 -71.4290 62° Northeast 500 575 33,000  Level FlightAware
09:41AM 40.9050 -71.3490 50° Northeast 496 571 33,000  Level FlightAware
09:41AM 40.9580 -71.2750 47° Northeast 496 571 33,000  Level FlightAware
09:42AM 41.0120 -71.1980 47° Northeast 495 570 33,000  Level FlightAware
09:42AM 41.0680 -71.1190 47° Northeast 495 570 33,000  Level FlightAware
09:43AM 41.1130 -71.0550 47° Northeast 495 570 33,000  Level FlightAware
09:44AM 41.1780 -70.9640 46° Northeast 494 568 33,000  Level FlightAware
09:44AM 41.2410 -70.8740 47° Northeast 493 567 33,000  Level FlightAware
09:45AM 41.3120 -70.7730 47° Northeast 493 567 33,000  Level FlightAware
09:46AM 41.3750 -70.6840 47° Northeast 491 565 33,000  Level FlightAware
09:46AM 41.4180 -70.6220 47° Northeast 484 557 33,000  Level FlightAware
09:47AM 41.4690 -70.5490 47° Northeast 484 557 33,000  Level FlightAware
09:47AM 41.5390 -70.4490 47° Northeast 482 555 33,000  Level FlightAware
09:48AM 41.6080 -70.3480 48° Northeast 481 554 33,000  Level FlightAware
09:49AM 41.6670 -70.2620 47° Northeast 481 554 33,000  Level FlightAware
09:49AM 41.7240 -70.1780 48° Northeast 484 557 33,000  Level FlightAware
09:50AM 41.7840 -70.0900 48° Northeast 484 557 33,000  Level FlightAware
09:51AM 41.8340 -70.0160 48° Northeast 482 555 33,000  Level FlightAware
09:51AM 41.8960 -69.9250 48° Northeast 482 555 33,000  Level FlightAware
09:52AM 41.9610 -69.8280 48° Northeast 480 552 33,000  Level FlightAware
09:53AM 42.0130 -69.7500 48° Northeast 479 551 33,000  Level FlightAware
09:53AM 42.0550 -69.6870 48° Northeast 478 550 33,000  Level FlightAware
09:54AM 42.1240 -69.5830 48° Northeast 471 542 33,000  Level FlightAware
09:55AM 42.1750 -69.5070 48° Northeast 470 541 33,000  Level FlightAware
09:55AM 42.2340 -69.4190 48° Northeast 469 540 33,000  Level FlightAware
09:56AM 42.2870 -69.3390 48° Northeast 467 537 33,000  Level FlightAware
09:56AM 42.3380 -69.2600 49° Northeast 468 539 33,000  Level FlightAware
09:57AM 42.3890 -69.1830 48° Northeast 469 540 33,000  Level FlightAware
09:58AM 42.4410 -69.1040 48° Northeast 469 540 33,000  Level FlightAware
09:58AM 42.4930 -69.0240 49° Northeast 470 541 33,000  Level FlightAware
09:59AM 42.5390 -68.9540 48° Northeast 469 540 33,000  Level FlightAware
10:00AM 42.6140 -68.8370 49° Northeast 468 539 33,000  Level FlightAware
10:00AM 42.6570 -68.7730 48° Northeast 468 539 33,000  Level FlightAware
10:01AM 42.7030 -68.7010 49° Northeast 468 539 33,000  Level FlightAware
10:01AM 42.7470 -68.6330 49° Northeast 468 539 33,000  Level FlightAware
10:02AM 42.8170 -68.5260 48° Northeast 471 542 33,000  Level FlightAware
10:03AM 42.8650 -68.4530 48° Northeast 471 542 33,000  Level FlightAware
10:03AM 42.9190 -68.3650 50° Northeast 635 731 33,000  Level FlightAware
10:07AM 43.2620 -67.8220 49° Northeast 468 539 33,000  Level FlightAware
10:08AM 43.3120 -67.7440 49° Northeast 467 537 33,000  Level FlightAware
10:08AM 43.3620 -67.6640 49° Northeast 467 537 33,000  Level FlightAware
10:09AM 43.4050 -67.5940 50° Northeast 467 537 33,000  Level FlightAware
10:09AM 43.4540 -67.5160 49° Northeast 467 537 33,000  Level FlightAware
10:10AM 43.5040 -67.4350 50° Northeast 467 537 33,000  Level FlightAware
10:11AM 43.5530 -67.3550 50° Northeast 467 537 33,000  Level FlightAware
10:11AM 43.6020 -67.2750 50° Northeast 462 532 33,000  Level FlightAware
10:12AM 43.6520 -67.1950 49° Northeast 462 532 33,000  Level FlightAware
10:12AM 43.7000 -67.1160 50° Northeast 461 531 33,000  Level FlightAware
10:13AM 43.7480 -67.0370 50° Northeast 461 531 33,000  Level FlightAware
10:14AM 43.7970 -66.9570 50° Northeast 460 529 33,000  Level FlightAware
10:14AM 43.8450 -66.8780 50° Northeast 459 528 33,000  Level FlightAware
10:15AM 43.8940 -66.7980 50° Northeast 458 527 33,000  Level FlightAware
10:15AM 43.9410 -66.7200 50° Northeast 457 526 33,000  Level FlightAware
10:16AM 43.9890 -66.6390 51° Northeast 456 525 33,000  Level FlightAware
10:16AM 44.0370 -66.5600 50° Northeast 456 525 33,000  Level FlightAware
10:17AM 44.0850 -66.4790 50° Northeast 460 529 33,000  Level FlightAware
10:18AM 44.1320 -66.4010 50° Northeast 456 525 33,000  Level FlightAware
10:18AM 44.1810 -66.3180 51° Northeast 458 527 33,000  Level FlightAware
10:19AM 44.2290 -66.2380 50° Northeast 463 533 33,000  Level FlightAware
10:19AM 44.2830 -66.1470 50° Northeast 463 533 33,000  Level FlightAware
10:20AM 44.3240 -66.0770 51° Northeast 459 528 33,000  Level FlightAware
10:21AM 44.3770 -65.9880 50° Northeast 464 534 33,000  Level FlightAware
10:21AM 44.4180 -65.9170 51° Northeast 464 534 33,000  Level FlightAware
10:22AM 44.4720 -65.8250 51° Northeast 464 534 33,000  Level FlightAware
10:22AM 44.5120 -65.7560 51° Northeast 464 534 33,000  Level FlightAware
10:23AM 44.5650 -65.6660 50° Northeast 464 534 33,000  Level FlightAware
10:24AM 44.6210 -65.5700 51° Northeast 464 534 33,000  Level FlightAware
10:24AM 44.6740 -65.4780 51° Northeast 464 534 33,000  Level FlightAware
10:25AM 44.7160 -65.4050 51° Northeast 465 535 33,000  Level FlightAware
10:25AM 44.7660 -65.3180 51° Northeast 466 536 33,000  Level FlightAware
10:26AM 44.8140 -65.2340 51° Northeast 468 539 33,000  Level FlightAware
10:27AM 44.8640 -65.1470 51° Northeast 468 539 33,000  Level FlightAware
10:27AM 44.9060 -65.0730 51° Northeast 468 539 33,000  Level FlightAware
10:28AM 44.9530 -64.9910 51° Northeast 468 539 33,000  Level FlightAware
10:28AM 45.0040 -64.9000 52° Northeast 469 540 33,000  Level FlightAware
10:29AM 45.0500 -64.8190 51° Northeast 469 540 33,000  Level FlightAware
10:29AM 45.0960 -64.7380 51° Northeast 470 541 33,000  Level FlightAware
10:30AM 45.1450 -64.6510 51° Northeast 471 542 33,000  Level FlightAware
10:31AM 45.1930 -64.5650 52° Northeast 471 542 33,000  Level FlightAware
10:31AM 45.2360 -64.4870 52° Northeast 472 543 33,000  Level FlightAware
10:32AM 45.2860 -64.3980 51° Northeast 473 544 33,000  Level FlightAware
10:32AM 45.3340 -64.3110 52° Northeast 475 547 33,000  Level FlightAware
10:33AM 45.3780 -64.2330 51° Northeast 476 548 33,000  Level FlightAware
10:34AM 45.4290 -64.1410 52° Northeast 476 548 33,000  Level FlightAware
10:34AM 45.4710 -64.0670 51° Northeast 476 548 33,000  Level FlightAware
10:35AM 45.5140 -63.9920 51° Northeast 476 548 33,000  Level FlightAware
10:35AM 45.5570 -63.9150 51° Northeast 476 548 33,000  Level FlightAware
10:36AM 45.6000 -63.8400 51° Northeast 476 548 33,000  Level FlightAware
10:37AM 45.6420 -63.7650 51° Northeast 476 548 33,000  Level FlightAware
10:37AM 45.6860 -63.6880 51° Northeast 476 548 33,000  Level FlightAware
10:38AM 45.7260 -63.6180 51° Northeast 476 548 33,000  Level FlightAware
10:38AM 45.7680 -63.5420 52° Northeast 476 548 33,000  Level FlightAware
10:39AM 45.8110 -63.4670 51° Northeast 476 548 33,000  Level FlightAware
10:40AM 45.8540 -63.3900 51° Northeast 476 548 33,000  Level FlightAware
10:40AM 45.8990 -63.3110 51° Northeast 476 548 33,000  Level FlightAware
10:41AM 45.9390 -63.2400 51° Northeast 476 548 33,000  Level FlightAware
10:42AM 46.1350 -62.8290 55° Northeast 486 559 33,000  Level FlightAware
10:43AM 46.1760 -62.7490 53° Northeast 487 560 33,000  Level FlightAware
10:43AM 46.2300 -62.6480 52° Northeast 489 563 33,000  Level FlightAware
10:44AM 46.2740 -62.5620 53° Northeast 488 562 33,000  Level FlightAware
10:44AM 46.3240 -62.4670 53° Northeast 491 565 33,000  Level FlightAware
10:45AM 46.3720 -62.3730 53° Northeast 493 567 33,000  Level FlightAware
10:46AM 46.4170 -62.2870 53° Northeast 495 570 33,000  Level FlightAware
10:46AM 46.4650 -62.1940 53° Northeast 496 571 33,000  Level FlightAware
10:47AM 46.5110 -62.1030 54° Northeast 496 571 33,000  Level FlightAware
10:47AM 46.5610 -62.0070 53° Northeast 498 573 33,000  Level FlightAware
10:48AM 46.6110 -61.9090 53° Northeast 500 575 33,000  Level FlightAware
10:49AM 46.6580 -61.8160 54° Northeast 503 579 33,000  Level FlightAware
10:49AM 46.7040 -61.7250 54° Northeast 503 579 33,000  Level FlightAware
10:50AM 46.7510 -61.6320 54° Northeast 505 581 33,000  Level FlightAware
10:50AM 46.8040 -61.5270 54° Northeast 509 586 33,000  Level FlightAware
10:51AM 46.8510 -61.4330 54° Northeast 510 587 33,000  Level FlightAware
10:52AM 46.9040 -61.3270 54° Northeast 512 589 33,000  Level FlightAware
10:52AM 46.9500 -61.2330 54° Northeast 514 592 33,000  Level FlightAware
10:53AM 46.9980 -61.1370 54° Northeast 514 592 33,000  Level FlightAware
10:53AM 47.0450 -61.0410 54° Northeast 514 592 33,000  Level FlightAware
10:54AM 47.0960 -60.9380 54° Northeast 513 590 33,000  Level FlightAware
10:54AM 47.1460 -60.8360 54° Northeast 512 589 33,000  Level FlightAware
10:55AM 47.1960 -60.7330 54° Northeast 513 590 33,000  Level FlightAware
10:56AM 47.2400 -60.6440 54° Northeast 513 590 33,000  Level FlightAware
10:56AM 47.3090 -60.5020 54° Northeast 513 590 33,000  Level FlightAware
10:57AM 47.3520 -60.4150 54° Northeast 513 590 33,000  Level FlightAware
10:58AM 47.4080 -60.2950 55° Northeast 512 589 33,000  Level FlightAware
10:58AM 47.4700 -60.1650 55° Northeast 513 590 33,000  Level FlightAware
10:59AM 47.5150 -60.0730 54° Northeast 513 590 33,000  Level FlightAware
11:00AM 47.5580 -59.9860 54° Northeast 513 590 33,000  Level FlightAware
11:00AM 47.6010 -59.8990 54° Northeast 513 590 33,000  Level FlightAware
11:01AM 47.6410 -59.8170 54° Northeast 513 590 33,000  Level FlightAware
11:01AM 47.6850 -59.7270 54° Northeast 513 590 33,000  Level FlightAware
11:02AM 47.7290 -59.6370 54° Northeast 513 590 33,000  Level FlightAware
11:03AM 47.7700 -59.5520 54° Northeast 513 590 33,000  Level FlightAware
11:03AM 47.8600 -59.3380 58° Northeast 522 601 33,000  Level FlightAware
11:04AM 47.9200 -59.2090 55° Northeast 524 603 33,000  Level FlightAware
11:04AM 47.9700 -59.0990 56° Northeast 527 606 33,000  Level FlightAware
11:05AM 48.0110 -59.0090 56° Northeast 528 608 33,000  Level FlightAware
11:06AM 48.0590 -58.9040 56° Northeast 530 610 33,000  Level FlightAware
11:06AM 48.1070 -58.7990 56° Northeast 532 612 33,000  Level FlightAware
11:07AM 48.1480 -58.6860 61° Northeast 537 618 33,000  Level FlightAware
11:07AM 48.1890 -58.5300 68° East 539 620 33,000  Level FlightAware
11:08AM 48.2200 -58.4100 69° East 540 621 33,000  Level FlightAware
11:09AM 48.2510 -58.2840 70° East 541 623 33,000  Level FlightAware
11:09AM 48.2770 -58.1800 69° East 542 624 33,000  Level FlightAware
11:10AM 48.3110 -58.0370 70° East 543 625 33,000  Level FlightAware
11:10AM 48.3410 -57.9130 70° East 543 625 33,000  Level FlightAware
11:11AM 48.3640 -57.8180 70° East 542 624 33,000  Level FlightAware
11:12AM 48.4010 -57.6640 70° East 543 625 33,000  Level FlightAware
11:12AM 48.4300 -57.5400 71° East 544 626 33,000  Level FlightAware
11:13AM 48.4590 -57.4150 71° East 544 626 33,000  Level FlightAware
11:13AM 48.4870 -57.2950 71° East 546 628 33,000  Level FlightAware
11:14AM 48.5170 -57.1660 71° East 548 631 33,000  Level FlightAware
11:14AM 48.5450 -57.0440 71° East 549 632 33,000  Level FlightAware
11:15AM 48.5790 -56.8960 71° East 553 636 33,000  Level FlightAware
11:16AM 48.6090 -56.7660 71° East 557 641 33,000  Level FlightAware
11:16AM 48.6390 -56.6370 71° East 561 646 33,000  Level FlightAware
11:17AM 48.6720 -56.4880 71° East 566 651 33,000  Level FlightAware
11:17AM 48.6970 -56.3770 71° East 570 656 33,000  Level FlightAware
11:18AM 48.7270 -56.2440 71° East 571 657 33,000  Level FlightAware
11:19AM 48.7560 -56.1110 72° East 571 657 33,000  Level FlightAware
11:19AM 48.7910 -55.9580 71° East 572 658 33,000  Level FlightAware
11:20AM 48.8170 -55.8470 70° East 571 657 33,000  Level FlightAware
11:20AM 48.8480 -55.7140 70° East 570 656 33,000  Level FlightAware
11:21AM 48.8790 -55.5810 70° East 572 658 33,000  Level FlightAware
11:22AM 48.9100 -55.4490 70° East 574 661 33,000  Level FlightAware
11:22AM 48.9400 -55.3150 71° East 577 664 33,000  Level FlightAware
11:23AM 48.9700 -55.1810 71° East 581 669 33,000  Level FlightAware
11:23AM 49.0010 -55.0450 71° East 585 673 33,000  Level FlightAware
11:24AM 49.0320 -54.9080 71° East 590 679 33,000 420 Level FlightAware
11:24AM 49.0620 -54.7710 71° East 595 685 33,500 900 Climbing FlightAware
11:25AM 49.0920 -54.6330 72° East 595 685 34,100 1,260 Climbing FlightAware
11:26AM 49.1230 -54.4930 71° East 585 673 35,000 720 Climbing FlightAware
11:26AM 49.1550 -54.3460 72° East 582 670 35,000  Level FlightAware
11:27AM 49.1810 -54.2240 72° East 580 667 35,000  Level FlightAware
11:27AM 49.2110 -54.0860 72° East 578 665 35,000  Level FlightAware
11:28AM 49.2400 -53.9490 72° East 580 667 35,000  Level FlightAware
11:29AM 49.2730 -53.7930 72° East 580 667 35,000  Level FlightAware
11:29AM 49.2980 -53.6770 72° East 581 669 35,000  Level FlightAware
11:30AM 49.3260 -53.5400 73° East 582 670 35,000  Level FlightAware
11:30AM 49.3550 -53.4020 72° East 583 671 35,000  Level FlightAware
11:31AM 49.3830 -53.2640 73° East 579 666 35,000  Level FlightAware
11:31AM 49.4110 -53.1290 72° East 576 663 35,000  Level FlightAware
11:32AM 49.4420 -52.9770 73° East 570 656 35,000  Level FlightAware
11:33AM 49.4660 -52.8570 73° East 569 655 35,000  Level FlightAware
11:33AM 49.4930 -52.7230 73° East 568 654 35,000  Level FlightAware
11:34AM 49.5200 -52.5900 73° East 567 652 35,000  Level FlightAware
11:34AM 49.5470 -52.4540 73° East 566 651 35,000  Level FlightAware
11:35AM 49.5720 -52.3240 73° East 565 650 35,000  Level FlightAware
11:36AM 49.5990 -52.1850 73° East 563 648 35,000  Level FlightAware
11:36AM 49.6250 -52.0520 73° East 563 648 35,000  Level FlightAware
11:37AM 49.6550 -51.8960 73° East 562 647 35,000  Level FlightAware
11:37AM 49.6750 -51.7890 74° East 560 644 35,000  Level FlightAware
11:38AM 49.7020 -51.6480 73° East 559 643 35,000  Level FlightAware
11:38AM 49.7270 -51.5170 74° East 558 642 35,000  Level FlightAware
11:39AM 49.7530 -51.3760 74° East 553 636 35,000  Level FlightAware
11:40AM 49.7770 -51.2490 74° East 545 627 35,000  Level FlightAware
11:40AM 49.7980 -51.1370 74° East 539 620 35,000  Level FlightAware
11:41AM 49.8180 -51.0250 74° East 535 616 35,000  Level FlightAware
11:41AM 49.8470 -50.8660 74° East 535 616 35,000  Level FlightAware
11:42AM 49.8680 -50.7480 75° East 535 616 35,000  Level FlightAware
11:43AM 49.8910 -50.6210 74° East 537 618 35,000  Level FlightAware
11:43AM 49.9120 -50.5070 74° East 537 618 35,000  Level FlightAware
11:44AM 49.9360 -50.3810 73° East 537 618 35,000  Level FlightAware
11:44AM 49.9570 -50.2640 74° East 537 618 35,000  Level FlightAware
11:45AM 49.9770 -50.1570 74° East 537 618 35,000  Level FlightAware
11:46AM 49.9970 -50.0500 74° East 537 618 35,000  Level FlightAware
11:46AM 50.0180 -49.9360 74° East 537 618 35,000  Level FlightAware
11:47AM 50.0400 -49.8160 74° East 537 618 35,000  Level FlightAware
11:48AM 50.0660 -49.6700 74° East 537 618 35,000  Level FlightAware
11:48AM 50.0870 -49.5570 74° East 537 618 35,000  Level FlightAware
11:49AM 50.1080 -49.4430 74° East 537 618 35,000  Level FlightAware
11:49AM 50.1290 -49.3290 74° East 537 618 35,000  Level FlightAware
11:50AM 50.1500 -49.2150 74° East 537 618 35,000  Level FlightAware
11:51AM 50.1720 -49.0970 74° East 537 618 35,000  Level FlightAware
11:51AM 50.1940 -48.9770 74° East 537 618 35,000  Level FlightAware
11:52AM 50.2150 -48.8590 74° East 537 618 35,000  Level FlightAware
11:56AM 50.3889 -48.1475 69° East  Level FlightAware Approximate
11:57AM 50.4360 -47.9508 69° East  Level FlightAware Approximate
11:58AM 50.4827 -47.7537 69° East  Level FlightAware Approximate
11:59AM 50.5291 -47.5562 70° East  Level FlightAware Approximate
11:59AM 50.0000 -50.0000 69° East 539 620 35,000  Level ETMS Enhanced Traffic Management System
11:59AM 50.0000 -50.0000 69° East 539 620 35,000  Level ETMS Enhanced Traffic Management System
12:00PM 50.5752 -47.3583 70° East  Level FlightAware Approximate
12:01PM 50.6209 -47.1600 70° East  Level FlightAware Approximate
12:02PM 50.6664 -46.9614 70° East  Level FlightAware Approximate
12:03PM 50.7114 -46.7623 70° East  Level FlightAware Approximate
12:04PM 50.7562 -46.5629 70° East  Level FlightAware Approximate
12:05PM 51.0147 -45.5621 72° East 539 620 35,000  Level FlightAware Transoceanic
12:06PM 51.0609 -45.3353 72° East 539 620 35,000  Level FlightAware Transoceanic
12:07PM 51.1067 -45.1081 72° East 539 620 35,000  Level FlightAware Transoceanic
12:08PM 51.1521 -44.8803 72° East 539 620 35,000  Level FlightAware Transoceanic
12:09PM 51.1970 -44.6522 73° East 539 620 35,000  Level FlightAware Transoceanic
12:10PM 51.2415 -44.4236 73° East 539 620 35,000  Level FlightAware Transoceanic
12:11PM 51.2855 -44.1945 73° East 539 620 35,000  Level FlightAware Transoceanic
12:12PM 51.3291 -43.9650 73° East 539 620 35,000  Level FlightAware Transoceanic
12:13PM 51.3722 -43.7351 73° East 539 620 35,000  Level FlightAware Transoceanic
12:14PM 51.4149 -43.5048 74° East 539 620 35,000  Level FlightAware Transoceanic
12:15PM 51.4571 -43.2740 74° East 539 620 35,000  Level FlightAware Transoceanic
12:16PM 51.4989 -43.0428 74° East 539 620 35,000  Level FlightAware Transoceanic
12:17PM 51.5402 -42.8112 74° East 539 620 35,000  Level FlightAware Transoceanic
12:18PM 51.5811 -42.5791 74° East 539 620 35,000  Level FlightAware Transoceanic
12:19PM 51.6215 -42.3467 74° East 539 620 35,000  Level FlightAware Transoceanic
12:20PM 51.6614 -42.1138 75° East 539 620 35,000  Level FlightAware Transoceanic
12:21PM 51.7009 -41.8805 75° East 539 620 35,000  Level FlightAware Transoceanic
12:22PM 51.7399 -41.6468 75° East 539 620 35,000  Level FlightAware Transoceanic
12:23PM 51.7785 -41.4127 75° East 539 620 35,000  Level FlightAware Transoceanic
12:24PM 51.8166 -41.1783 75° East 539 620 35,000  Level FlightAware Transoceanic
12:25PM 51.8542 -40.9434 76° East 539 620 35,000  Level FlightAware Transoceanic
12:26PM 51.8914 -40.7081 76° East 539 620 35,000  Level FlightAware Transoceanic
12:27PM 51.9281 -40.4725 76° East 539 620 35,000  Level FlightAware Transoceanic
12:28PM 51.9643 -40.2364 76° East 539 620 35,000  Level FlightAware Transoceanic
12:29PM 51.9962 -40.0253 76° East  Level FlightAware Approximate
12:30PM 52.0278 -39.8139 76° East  Level FlightAware Approximate
12:31PM 52.0061 -39.8348 87° East  Level FlightAware Approximate
12:32PM 52.0136 -39.6176 87° East  Level FlightAware Approximate
12:33PM 52.0208 -39.4003 87° East  Level FlightAware Approximate
12:34PM 52.0276 -39.1830 87° East  Level FlightAware Approximate
12:35PM 52.0340 -38.9656 87° East  Level FlightAware Approximate
12:36PM 52.0400 -38.7481 87° East  Level FlightAware Approximate
12:37PM 52.0456 -38.5306 88° East  Level FlightAware Approximate
12:38PM 52.0508 -38.3130 88° East  Level FlightAware Approximate
12:39PM 52.0556 -38.0953 88° East  Level FlightAware Approximate
12:40PM 52.0600 -37.8777 88° East  Level FlightAware Approximate
12:41PM 52.0640 -37.6600 88° East  Level FlightAware Approximate
12:42PM 52.0680 -37.4422 88° East  Level FlightAware Approximate
12:43PM 52.0726 -37.2245 88° East  Level FlightAware Approximate
12:44PM 52.0769 -37.0067 88° East  Level FlightAware Approximate
12:45PM 52.0808 -36.7889 88° East  Level FlightAware Approximate
12:46PM 52.0843 -36.5711 88° East  Level FlightAware Approximate
12:47PM 52.0873 -36.3532 89° East  Level FlightAware Approximate
12:48PM 52.0900 -36.1353 89° East  Level FlightAware Approximate
12:49PM 52.0923 -35.9174 89° East  Level FlightAware Approximate
12:50PM 52.0941 -35.6994 89° East  Level FlightAware Approximate
12:51PM 52.0956 -35.4814 89° East  Level FlightAware Approximate
12:52PM 52.0966 -35.2635 89° East  Level FlightAware Approximate
12:53PM 52.0973 -35.0455 90° East  Level FlightAware Approximate
12:54PM 52.0975 -34.8275 90° East  Level FlightAware Approximate
12:55PM 52.0974 -34.6095 90° East  Level FlightAware Approximate
12:56PM 52.0968 -34.3915 90° East  Level FlightAware Approximate
12:57PM 52.0959 -34.1736 90° East  Level FlightAware Approximate
12:58PM 52.0945 -33.9556 90° East  Level FlightAware Approximate
12:59PM 52.0928 -33.7376 91° East  Level FlightAware Approximate
01:00PM 52.0906 -33.5197 91° East  Level FlightAware Approximate
01:01PM 52.0881 -33.3018 91° East  Level FlightAware Approximate
01:02PM 52.0851 -33.0839 91° East  Level FlightAware Approximate
01:03PM 52.0817 -32.8661 91° East  Level FlightAware Approximate
01:04PM 52.0780 -32.6483 92° East  Level FlightAware Approximate
01:05PM 52.0738 -32.4305 92° East  Level FlightAware Approximate
01:06PM 52.0692 -32.2127 92° East  Level FlightAware Approximate
01:07PM 52.0643 -31.9951 92° East  Level FlightAware Approximate
01:08PM 52.0589 -31.7774 92° East  Level FlightAware Approximate
01:09PM 52.0531 -31.5598 92° East  Level FlightAware Approximate
01:10PM 52.0470 -31.3423 93° East  Level FlightAware Approximate
01:11PM 52.0404 -31.1248 93° East  Level FlightAware Approximate
01:12PM 52.0334 -30.9074 93° East  Level FlightAware Approximate
01:13PM 52.0261 -30.6901 93° East  Level FlightAware Approximate
01:14PM 52.0183 -30.4729 93° East  Level FlightAware Approximate
01:15PM 52.0101 -30.2557 93° East  Level FlightAware Approximate
01:16PM 52.0016 -30.0386 94° East  Level FlightAware Approximate
01:17PM 52.0252 -29.8258 77° East  Level FlightAware Approximate
01:18PM 52.0554 -29.6138 77° East  Level FlightAware Approximate
01:19PM 52.0853 -29.4014 77° East  Level FlightAware Approximate
01:20PM 52.1148 -29.1887 77° East  Level FlightAware Approximate
01:21PM 52.1439 -28.9758 77° East  Level FlightAware Approximate
01:22PM 52.1726 -28.7626 78° East  Level FlightAware Approximate
01:23PM 52.2009 -28.5491 78° East  Level FlightAware Approximate
01:24PM 52.2289 -28.3354 78° East  Level FlightAware Approximate
01:25PM 52.2564 -28.1213 78° East  Level FlightAware Approximate
01:26PM 52.2836 -27.9071 78° East  Level FlightAware Approximate
01:27PM 52.3104 -27.6925 78° East  Level FlightAware Approximate
01:28PM 52.3368 -27.4777 79° East  Level FlightAware Approximate
01:29PM 52.3628 -27.2627 79° East  Level FlightAware Approximate
01:30PM 52.3884 -27.0474 79° East  Level FlightAware Approximate
01:31PM 52.4136 -26.8318 79° East  Level FlightAware Approximate
01:32PM 52.4385 -26.6160 79° East  Level FlightAware Approximate
01:33PM 52.4629 -26.4000 79° East  Level FlightAware Approximate
01:34PM 52.4869 -26.1837 80° East  Level FlightAware Approximate
01:35PM 52.5106 -25.9672 80° East  Level FlightAware Approximate
01:36PM 52.5339 -25.7504 80° East  Level FlightAware Approximate
01:37PM 52.5567 -25.5334 80° East  Level FlightAware Approximate
01:38PM 52.5792 -25.3162 80° East  Level FlightAware Approximate
01:39PM 52.6012 -25.0988 80° East  Level FlightAware Approximate
01:40PM 52.6229 -24.8812 81° East  Level FlightAware Approximate
01:41PM 52.6442 -24.6633 81° East  Level FlightAware Approximate
01:42PM 52.6650 -24.4453 81° East  Level FlightAware Approximate
01:43PM 52.6855 -24.2270 81° East  Level FlightAware Approximate
01:44PM 52.7056 -24.0085 81° East  Level FlightAware Approximate
01:45PM 52.7252 -23.7899 81° East  Level FlightAware Approximate
01:46PM 52.7445 -23.5710 82° East  Level FlightAware Approximate
01:47PM 52.7634 -23.3520 82° East  Level FlightAware Approximate
01:48PM 52.7818 -23.1327 82° East  Level FlightAware Approximate
01:49PM 52.7999 -22.9133 82° East  Level FlightAware Approximate
01:50PM 52.8175 -22.6937 82° East  Level FlightAware Approximate
01:51PM 52.8347 -22.4739 83° East  Level FlightAware Approximate
01:52PM 52.8516 -22.2540 83° East  Level FlightAware Approximate
01:53PM 52.8680 -22.0338 83° East  Level FlightAware Approximate
01:54PM 52.8840 -21.8135 83° East  Level FlightAware Approximate
01:55PM 52.8996 -21.5931 83° East  Level FlightAware Approximate
01:56PM 52.9148 -21.3725 83° East  Level FlightAware Approximate
01:57PM 52.9296 -21.1517 84° East  Level FlightAware Approximate
01:58PM 52.9440 -20.9308 84° East  Level FlightAware Approximate
01:59PM 52.9580 -20.7098 84° East  Level FlightAware Approximate
02:00PM 52.9715 -20.4886 84° East  Level FlightAware Approximate
02:01PM 52.9847 -20.2672 84° East  Level FlightAware Approximate
02:02PM 52.9974 -20.0458 84° East  Level FlightAware Approximate
02:03PM 52.9995 -19.8235 90° East  Level FlightAware Approximate
02:04PM 52.9984 -19.6010 90° East  Level FlightAware Approximate
02:05PM 52.9969 -19.3785 91° East  Level FlightAware Approximate
02:06PM 52.9951 -19.1560 91° East  Level FlightAware Approximate
02:07PM 52.9928 -18.9336 91° East  Level FlightAware Approximate
02:08PM 52.9901 -18.7111 91° East  Level FlightAware Approximate
02:09PM 52.9869 -18.4887 91° East  Level FlightAware Approximate
02:10PM 52.9834 -18.2664 91° East  Level FlightAware Approximate
02:11PM 52.9794 -18.0441 92° East  Level FlightAware Approximate
02:12PM 52.9751 -17.8218 92° East  Level FlightAware Approximate
02:13PM 52.9703 -17.5996 92° East  Level FlightAware Approximate
02:14PM 52.9651 -17.3774 92° East  Level FlightAware Approximate
02:15PM 52.9594 -17.1552 92° East  Level FlightAware Approximate
02:16PM 52.9534 -16.9332 92° East  Level FlightAware Approximate
02:17PM 52.9470 -16.7112 93° East  Level FlightAware Approximate
02:18PM 52.9401 -16.4892 93° East  Level FlightAware Approximate
02:19PM 52.9328 -16.2674 93° East  Level FlightAware Approximate
02:20PM 52.9252 -16.0456 93° East  Level FlightAware Approximate
02:21PM 52.9171 -15.8239 93° East  Level FlightAware Approximate
02:22PM 52.9086 -15.6023 94° East  Level FlightAware Approximate
02:23PM 52.8996 -15.3807 94° East  Level FlightAware Approximate
02:24PM 52.8903 -15.1593 94° East  Level FlightAware Approximate
02:25PM 52.8808 -14.9379 94° East  Level FlightAware Approximate
02:26PM 52.8715 -14.7166 94° East  Level FlightAware Approximate
02:27PM 52.8617 -14.4953 94° East  Level FlightAware Approximate
02:28PM 52.8516 -14.2742 94° East  Level FlightAware Approximate
02:28PM 53.8820 -14.2420 94° East 507 583 35,000  Level FlightAware
02:29PM 52.8410 -14.0531 94° East  Level FlightAware Approximate
02:29PM 53.8580 -14.0890 105° East 509 586 35,000  Level FlightAware
02:29PM 53.8400 -13.9750 105° East 511 588 35,000  Level FlightAware
02:30PM 53.8020 -13.7410 105° East 510 587 35,000  Level FlightAware
02:31PM 53.7800 -13.6100 106° East 509 586 35,000  Level FlightAware
02:31PM 53.7610 -13.4930 105° East 508 585 35,000  Level FlightAware
02:32PM 53.7410 -13.3730 106° East 507 583 35,000  Level FlightAware
02:33PM 53.7130 -13.2080 106° East 507 583 35,000  Level FlightAware
02:33PM 53.6900 -13.0710 106° East 505 581 35,000  Level FlightAware
02:34PM 53.6710 -12.9580 106° East 504 580 35,000  Level FlightAware
02:34PM 53.6480 -12.8270 106° East 503 579 35,000  Level FlightAware
02:35PM 53.6250 -12.6920 106° East 502 578 35,000  Level FlightAware
02:35PM 53.6030 -12.5650 106° East 505 581 35,000  Level FlightAware
02:36PM 53.5790 -12.4300 107° East 504 580 35,000  Level FlightAware
02:37PM 53.5560 -12.3000 107° East 505 581 35,000  Level FlightAware
02:37PM 53.5290 -12.1500 107° East 506 582 35,000  Level FlightAware
02:38PM 53.5090 -12.0390 107° East 506 582 35,000  Level FlightAware
02:38PM 53.4850 -11.9050 107° East 506 582 35,000  Level FlightAware
02:39PM 53.4580 -11.7590 107° East 503 579 35,000  Level FlightAware
02:40PM 53.4370 -11.6430 107° East 504 580 35,000  Level FlightAware
02:40PM 53.4130 -11.5120 107° East 503 579 35,000  Level FlightAware
02:41PM 53.3890 -11.3850 108° East 500 575 35,000  Level FlightAware
02:41PM 53.3640 -11.2530 108° East 498 573 35,000  Level FlightAware
02:42PM 53.3410 -11.1260 107° East 498 573 35,000  Level FlightAware
02:42PM 53.3150 -10.9940 108° East 497 572 35,000  Level FlightAware
02:43PM 53.2880 -10.8510 107° East 495 570 35,000  Level FlightAware
02:44PM 53.2660 -10.7380 108° East 495 570 35,000  Level FlightAware
02:44PM 53.2430 -10.6150 107° East 495 570 35,000  Level FlightAware
02:45PM 53.2140 -10.4700 108° East 495 570 35,000  Level FlightAware
02:45PM 53.1930 -10.3600 108° East 494 568 35,000  Level FlightAware
02:46PM 53.1630 -10.2110 109° East 494 568 35,000  Level FlightAware
02:47PM 53.1420 -10.1050 108° East 495 570 35,000  Level FlightAware
02:47PM 53.1160 -9.9770 109° East 494 568 35,000  Level FlightAware
02:48PM 53.0910 -9.8510 108° East 494 568 35,000  Level FlightAware
02:48PM 53.0650 -9.7240 109° East 495 570 35,000  Level FlightAware
02:49PM 53.0400 -9.6010 109° East 494 568 35,000  Level FlightAware
02:49PM 53.0150 -9.4790 109° East 493 567 35,000  Level FlightAware
02:50PM 52.9860 -9.3400 109° East 493 567 35,000  Level FlightAware
02:51PM 52.9620 -9.2240 109° East 493 567 35,000  Level FlightAware
02:51PM 52.9360 -9.1010 109° East 492 566 35,000  Level FlightAware
02:52PM 52.9060 -8.9590 109° East 492 566 35,000  Level FlightAware
02:52PM 52.8840 -8.8540 109° East 491 565 35,000  Level FlightAware
02:53PM 52.8570 -8.7280 109° East 492 566 35,000  Level FlightAware
02:54PM 52.8310 -8.6060 109° East 492 566 35,000  Level FlightAware
02:54PM 52.8040 -8.4790 109° East 492 566 35,000  Level FlightAware
02:54PM 52.8009 -8.4636 109° East 490 564 35,000  Level FlightAware UK
02:55PM 52.7777 -8.3562 109° East 490 564 35,000  Level FlightAware UK
02:55PM 52.7770 -8.3580 109° East 492 566 35,000  Level FlightAware
02:55PM 52.7490 -8.2300 110° East 489 563 35,000  Level FlightAware
02:56PM 52.7230 -8.1090 109° East 489 563 35,000  Level FlightAware
02:56PM 52.6960 -7.9890 110° East 487 560 35,000  Level FlightAware
02:57PM 52.6680 -7.8640 110° East 486 559 35,000  Level FlightAware
02:58PM 52.6420 -7.7460 110° East 485 558 35,000  Level FlightAware
02:58PM 52.6378 -7.7255 110° East 488 562 35,000  Level FlightAware UK
02:58PM 52.6146 -7.6212 110° East 488 562 35,000  Level FlightAware UK
02:58PM 52.6140 -7.6210 110° East 485 558 35,000  Level FlightAware
02:59PM 52.5870 -7.5010 110° East 486 559 35,000  Level FlightAware
02:59PM 52.5590 -7.3780 110° East 485 558 35,000  Level FlightAware
03:00PM 52.5280 -7.2420 110° East 486 559 35,000  Level FlightAware
03:01PM 52.5030 -7.1350 111° Southeast 486 559 35,000  Level FlightAware
03:01PM 52.4760 -7.0180 111° Southeast 487 560 35,000  Level FlightAware
03:01PM 52.4715 -6.9979 111° Southeast 488 562 35,000  Level FlightAware UK
03:02PM 52.4473 -6.8942 111° Southeast 490 564 35,000  Level FlightAware UK
03:02PM 52.4470 -6.8940 111° Southeast 487 560 35,000  Level FlightAware
03:02PM 52.4200 -6.7780 111° Southeast 489 563 35,000  Level FlightAware
03:03PM 52.3880 -6.6420 111° Southeast 489 563 35,000  Level FlightAware
03:03PM 52.3880 -6.6420 111° Southeast 489 563 35,000  Level FlightAware
03:03PM 52.3600 -6.5250 111° Southeast 489 563 35,000  Level FlightAware
03:03PM 52.3600 -6.5250 111° Southeast 489 563 35,000  Level FlightAware
03:04PM 52.3290 -6.3940 111° Southeast 488 562 35,000  Level FlightAware
03:04PM 52.3290 -6.3940 111° Southeast 488 562 35,000  Level FlightAware
03:05PM 52.3010 -6.2800 111° Southeast 487 560 35,000  Level FlightAware
03:05PM 52.3010 -6.2800 111° Southeast 487 560 35,000  Level FlightAware
03:05PM 52.3005 -6.2751 111° Southeast 490 564 35,000  Level FlightAware UK
03:05PM 52.3005 -6.2751 111° Southeast 490 564 35,000  Level FlightAware UK
03:05PM 52.2758 -6.1728 111° Southeast 488 562 35,000  Level FlightAware UK
03:05PM 52.2758 -6.1728 111° Southeast 488 562 35,000  Level FlightAware UK
03:05PM 52.2730 -6.1610 111° Southeast 486 559 35,000  Level FlightAware
03:05PM 52.2730 -6.1610 111° Southeast 486 559 35,000  Level FlightAware
03:06PM 52.2440 -6.0380 111° Southeast 486 559 35,000  Level FlightAware
03:06PM 52.2440 -6.0380 111° Southeast 486 559 35,000  Level FlightAware
03:06PM 52.2180 -5.9290 111° Southeast 485 558 35,000  Level FlightAware
03:06PM 52.2180 -5.9290 111° Southeast 485 558 35,000  Level FlightAware
03:07PM 52.1900 -5.8050 110° East 485 558 35,000  Level FlightAware
03:07PM 52.1900 -5.8050 110° East 485 558 35,000  Level FlightAware
03:08PM 52.1600 -5.6770 111° Southeast 486 559 35,000  Level FlightAware
03:08PM 52.1600 -5.6770 111° Southeast 486 559 35,000  Level FlightAware
03:08PM 52.1370 -5.5760 111° Southeast 487 560 35,000  Level FlightAware
03:08PM 52.1370 -5.5760 111° Southeast 487 560 35,000  Level FlightAware
03:08PM 52.1328 -5.5580 111° Southeast 488 562 35,000  Level FlightAware UK
03:08PM 52.1328 -5.5580 111° Southeast 488 562 35,000  Level FlightAware UK
03:09PM 52.1096 -5.4551 111° Southeast 490 564 35,000  Level FlightAware UK
03:09PM 52.1100 -5.4570 111° Southeast 488 562 35,000  Level FlightAware
03:09PM 52.1100 -5.4570 111° Southeast 488 562 35,000  Level FlightAware
03:09PM 52.1096 -5.4551 111° Southeast 490 564 35,000  Level FlightAware UK
03:09PM 52.0865 -5.3520 111° Southeast 490 564 35,000  Level FlightAware UK
03:09PM 52.0865 -5.3520 111° Southeast 490 564 35,000  Level FlightAware UK
03:09PM 52.0800 -5.3260 111° Southeast 488 562 35,000  Level FlightAware
03:09PM 52.0800 -5.3260 111° Southeast 488 562 35,000  Level FlightAware
03:10PM 52.0530 -5.2060 110° East 487 560 35,000  Level FlightAware
03:10PM 52.0530 -5.2060 110° East 487 560 35,000  Level FlightAware
03:10PM 52.0280 -5.0940 110° East 487 560 35,000  Level FlightAware
03:10PM 52.0280 -5.0940 110° East 487 560 35,000  Level FlightAware
03:11PM 52.0165 -5.0429 110° East 492 566 35,000  Level FlightAware UK
03:11PM 52.0165 -5.0429 110° East 492 566 35,000  Level FlightAware UK
03:11PM 51.9931 -4.9395 110° East 494 568 35,000  Level FlightAware UK
03:11PM 51.9931 -4.9395 110° East 494 568 35,000  Level FlightAware UK
03:11PM 51.9920 -4.9360 110° East 487 560 35,000  Level FlightAware
03:11PM 51.9920 -4.9360 110° East 487 560 35,000  Level FlightAware
03:12PM 51.9654 -4.8162 110° East 492 566 35,000  Level FlightAware UK
03:12PM 51.9654 -4.8162 110° East 492 566 35,000  Level FlightAware UK
03:12PM 51.9620 -4.8010 110° East 486 559 35,000  Level FlightAware
03:12PM 51.9620 -4.8010 110° East 486 559 35,000  Level FlightAware
03:12PM 51.9400 -4.6970 109° East 485 558 35,000  Level FlightAware
03:12PM 51.9400 -4.6970 109° East 485 558 35,000  Level FlightAware
03:13PM 51.9110 -4.5620 109° East 482 555 35,000  Level FlightAware
03:13PM 51.9110 -4.5620 109° East 482 555 35,000  Level FlightAware
03:14PM 51.8830 -4.4320 109° East 479 551 35,000  Level FlightAware
03:14PM 51.8830 -4.4320 109° East 479 551 35,000  Level FlightAware
03:14PM 51.8580 -4.3140 109° East 478 550 35,000  Level FlightAware
03:14PM 51.8580 -4.3140 109° East 478 550 35,000  Level FlightAware
03:14PM 51.8560 -4.3046 109° East 494 568 35,000  Level FlightAware UK
03:14PM 51.8560 -4.3046 109° East 494 568 35,000  Level FlightAware UK
03:15PM 51.8345 -4.2022 109° East 496 571 35,000  Level FlightAware UK
03:15PM 51.8345 -4.2022 109° East 496 571 35,000  Level FlightAware UK
03:15PM 51.8300 -4.1820 109° East 476 548 35,000  Level FlightAware
03:15PM 51.8300 -4.1820 109° East 476 548 35,000  Level FlightAware
03:15PM 51.8080 -4.0770 109° East 476 548 35,000  Level FlightAware
03:15PM 51.8080 -4.0770 109° East 476 548 35,000  Level FlightAware
03:16PM 51.7840 -3.9590 108° East 475 547 35,000  Level FlightAware
03:16PM 51.7840 -3.9590 108° East 475 547 35,000  Level FlightAware
03:17PM 51.7610 -3.8520 109° East 477 549 35,000  Level FlightAware
03:17PM 51.7610 -3.8520 109° East 477 549 35,000  Level FlightAware
03:17PM 51.7350 -3.7220 108° East 475 547 35,000  Level FlightAware
03:17PM 51.7350 -3.7220 108° East 475 547 35,000  Level FlightAware
03:18PM 51.7170 -3.6120 105° East 479 551 35,000  Level FlightAware
03:18PM 51.7170 -3.6120 105° East 479 551 35,000  Level FlightAware
03:18PM 51.7056 -3.4844 98° East 483 556 35,000  Level FlightAware ADS-B
03:18PM 51.7056 -3.4844 98° East 483 556 35,000  Level FlightAware ADS-B
03:19PM 51.6952 -3.3576 98° East 494 568 35,000  Level FlightAware UK
03:19PM 51.6952 -3.3576 98° East 494 568 35,000  Level FlightAware UK
03:19PM 51.6930 -3.3360 98° East 480 552 35,000  Level FlightAware
03:19PM 51.6930 -3.3360 98° East 480 552 35,000  Level FlightAware
03:19PM 51.6890 -3.2864 97° East 481 554 35,000  Level FlightAware ADS-B
03:19PM 51.6890 -3.2864 97° East 481 554 35,000  Level FlightAware ADS-B
03:20PM 51.6786 -3.1598 97° East 481 554 35,000  Level FlightAware ADS-B
03:20PM 51.6786 -3.1598 97° East 481 554 35,000  Level FlightAware ADS-B
03:20PM 51.6691 -3.0477 98° East 479 551 35,000  Level FlightAware ADS-B
03:20PM 51.6691 -3.0477 98° East 479 551 35,000  Level FlightAware ADS-B
03:21PM 51.6598 -2.9385 98° East 478 550 35,000  Level FlightAware ADS-B
03:21PM 51.6598 -2.9385 98° East 478 550 35,000  Level FlightAware ADS-B
03:21PM 51.6501 -2.8203 97° East 477 549 35,000  Level FlightAware ADS-B
03:21PM 51.6501 -2.8203 97° East 477 549 35,000  Level FlightAware ADS-B
03:22PM 51.6420 -2.7131 97° East 476 548 35,000  Level FlightAware ADS-B
03:22PM 51.6420 -2.7131 97° East 476 548 35,000  Level FlightAware ADS-B
03:22PM 51.6340 -2.6060 97° East 477 549 35,000  Level FlightAware ADS-B
03:22PM 51.6340 -2.6060 97° East 477 549 35,000  Level FlightAware ADS-B
03:23PM 51.6266 -2.4981 96° East 478 550 35,000  Level FlightAware ADS-B
03:23PM 51.6266 -2.4981 96° East 478 550 35,000  Level FlightAware ADS-B
03:23PM 51.6184 -2.3839 97° East 475 547 35,000  Level FlightAware ADS-B
03:23PM 51.6184 -2.3839 97° East 475 547 35,000  Level FlightAware ADS-B
03:24PM 51.6076 -2.2802 99° East 471 542 35,000  Level FlightAware ADS-B
03:24PM 51.6076 -2.2802 99° East 471 542 35,000  Level FlightAware ADS-B
03:24PM 51.5970 -2.1756 99° East 470 541 35,000  Level FlightAware ADS-B
03:24PM 51.5970 -2.1756 99° East 470 541 35,000  Level FlightAware ADS-B
03:25PM 51.5869 -2.0722 99° East 470 541 35,000  Level FlightAware ADS-B
03:25PM 51.5869 -2.0722 99° East 470 541 35,000  Level FlightAware ADS-B
03:25PM 51.5769 -1.9683 99° East 470 541 35,000  Level FlightAware ADS-B
03:25PM 51.5769 -1.9683 99° East 470 541 35,000  Level FlightAware ADS-B
03:26PM 51.5670 -1.8640 99° East 469 540 35,000  Level FlightAware ADS-B
03:26PM 51.5670 -1.8640 99° East 469 540 35,000  Level FlightAware ADS-B
03:27PM 51.5571 -1.7592 99° East 467 537 35,000  Level FlightAware ADS-B
03:27PM 51.5571 -1.7592 99° East 467 537 35,000  Level FlightAware ADS-B
03:27PM 51.5472 -1.6545 99° East 468 539 35,000  Level FlightAware ADS-B
03:27PM 51.5472 -1.6545 99° East 468 539 35,000  Level FlightAware ADS-B
03:28PM 51.5376 -1.5462 98° East 470 541 35,000  Level FlightAware ADS-B
03:28PM 51.5376 -1.5462 98° East 470 541 35,000  Level FlightAware ADS-B
03:28PM 51.5284 -1.4391 98° East 471 542 35,000  Level FlightAware ADS-B
03:28PM 51.5284 -1.4391 98° East 471 542 35,000  Level FlightAware ADS-B
03:29PM 51.5193 -1.3326 98° East 474 545 35,000  Level FlightAware ADS-B
03:29PM 51.5193 -1.3326 98° East 474 545 35,000  Level FlightAware ADS-B
03:29PM 51.5099 -1.2278 98° East 477 549 35,000  Level FlightAware ADS-B
03:29PM 51.5099 -1.2278 98° East 477 549 35,000  Level FlightAware ADS-B
03:30PM 51.5004 -1.1215 98° East 479 551 35,000  Level FlightAware ADS-B
03:30PM 51.5004 -1.1215 98° East 479 551 35,000  Level FlightAware ADS-B
03:30PM 51.4906 -1.0143 98° East 481 554 35,000  Level FlightAware ADS-B
03:30PM 51.4906 -1.0143 98° East 481 554 35,000  Level FlightAware ADS-B
03:31PM 51.4795 -0.8938 98° East 483 556 35,000  Level FlightAware ADS-B
03:31PM 51.4795 -0.8938 98° East 483 556 35,000  Level FlightAware ADS-B
03:31PM 51.4691 -0.7823 98° East 485 558 35,000  Level FlightAware ADS-B
03:31PM 51.4691 -0.7823 98° East 485 558 35,000  Level FlightAware ADS-B
03:32PM 51.4590 -0.6754 99° East 487 560 35,000  Level FlightAware ADS-B
03:32PM 51.4590 -0.6754 99° East 487 560 35,000  Level FlightAware ADS-B
03:32PM 51.4487 -0.5672 99° East 488 562 35,000  Level FlightAware ADS-B
03:32PM 51.4487 -0.5672 99° East 488 562 35,000  Level FlightAware ADS-B
03:33PM 51.4384 -0.4595 99° East 488 562 35,000  Level FlightAware ADS-B
03:33PM 51.4384 -0.4595 99° East 488 562 35,000  Level FlightAware ADS-B
03:33PM 51.4277 -0.3500 99° East 489 563 35,000  Level FlightAware ADS-B
03:33PM 51.4277 -0.3500 99° East 489 563 35,000  Level FlightAware ADS-B
03:34PM 51.4162 -0.2327 99° East 490 564 35,000  Level FlightAware ADS-B
03:34PM 51.4162 -0.2327 99° East 490 564 35,000  Level FlightAware ADS-B
03:34PM 51.4047 -0.1157 99° East 491 565 35,000  Level FlightAware ADS-B
03:34PM 51.4047 -0.1157 99° East 491 565 35,000  Level FlightAware ADS-B
03:35PM 51.3934 -0.0007 99° East 492 566 35,000  Level FlightAware ADS-B
03:35PM 51.3934 -0.0007 99° East 492 566 35,000  Level FlightAware ADS-B
03:35PM 51.3820 0.1109 99° East 491 565 35,000  Level FlightAware ADS-B
03:35PM 51.3820 0.1109 99° East 491 565 35,000  Level FlightAware ADS-B
03:36PM 51.3708 0.2191 99° East 489 563 35,000  Level FlightAware ADS-B
03:36PM 51.3708 0.2191 99° East 489 563 35,000  Level FlightAware ADS-B
03:36PM 51.3595 0.3287 99° East 488 562 35,000  Level FlightAware ADS-B
03:36PM 51.3595 0.3287 99° East 488 562 35,000  Level FlightAware ADS-B
03:37PM 51.3475 0.4435 99° East 485 558 35,000  Level FlightAware ADS-B
03:37PM 51.3475 0.4435 99° East 485 558 35,000  Level FlightAware ADS-B
03:37PM 51.3361 0.5526 99° East 482 555 35,000  Level FlightAware ADS-B
03:37PM 51.3361 0.5526 99° East 482 555 35,000  Level FlightAware ADS-B
03:38PM 51.3251 0.6580 99° East 480 552 35,000  Level FlightAware ADS-B
03:38PM 51.3251 0.6580 99° East 480 552 35,000  Level FlightAware ADS-B
03:38PM 51.3138 0.7631 100° East 475 547 35,000  Level FlightAware ADS-B
03:38PM 51.3138 0.7631 100° East 475 547 35,000  Level FlightAware ADS-B
03:39PM 51.3020 0.8732 100° East 471 542 35,000  Level FlightAware ADS-B
03:39PM 51.3020 0.8732 100° East 471 542 35,000  Level FlightAware ADS-B
03:40PM 51.2898 0.9848 100° East 468 539 35,000  Level FlightAware ADS-B
03:40PM 51.2898 0.9848 100° East 468 539 35,000  Level FlightAware ADS-B
03:40PM 51.2786 1.0865 100° East 466 536 35,000  Level FlightAware ADS-B
03:40PM 51.2786 1.0865 100° East 466 536 35,000  Level FlightAware ADS-B
03:41PM 51.2670 1.1903 100° East 463 533 35,000  Level FlightAware ADS-B
03:41PM 51.2670 1.1903 100° East 463 533 35,000  Level FlightAware ADS-B
03:41PM 51.2555 1.2938 100° East 463 533 35,000  Level FlightAware ADS-B
03:41PM 51.2555 1.2938 100° East 463 533 35,000  Level FlightAware ADS-B
03:42PM 51.2442 1.3947 100° East 462 532 35,000  Level FlightAware ADS-B
03:42PM 51.2442 1.3947 100° East 462 532 35,000  Level FlightAware ADS-B
03:42PM 51.2258 1.5687 100° East 470 541 35,000  Level FlightAware UK
03:42PM 51.2258 1.5687 100° East 470 541 35,000  Level FlightAware UK
03:42PM 51.2260 1.5650 100° East 463 533 35,000  Level FlightAware
03:42PM 51.2260 1.5650 100° East 463 533 35,000  Level FlightAware
03:43PM 51.2154 1.6700 100° East 472 543 35,000  Level FlightAware UK
03:43PM 51.2154 1.6700 100° East 472 543 35,000  Level FlightAware UK
03:43PM 51.2114 1.7076 100° East 463 533 35,000  Level FlightAware ADS-B
03:43PM 51.2114 1.7076 100° East 463 533 35,000  Level FlightAware ADS-B
03:44PM 51.2003 1.8118 100° East 463 533 35,000  Level FlightAware ADS-B
03:44PM 51.2003 1.8118 100° East 463 533 35,000  Level FlightAware ADS-B
03:44PM 51.1888 1.9178 100° East 463 533 35,000  Level FlightAware ADS-B
03:44PM 51.1888 1.9178 100° East 463 533 35,000  Level FlightAware ADS-B
03:45PM 51.1745 2.0466 100° East 463 533 35,000  Level FlightAware ADS-B
03:45PM 51.1745 2.0466 100° East 463 533 35,000  Level FlightAware ADS-B
03:45PM 51.1634 2.1481 100° East 464 534 35,000  Level FlightAware ADS-B
03:45PM 51.1634 2.1481 100° East 464 534 35,000  Level FlightAware ADS-B
03:46PM 51.1518 2.2509 100° East 464 534 35,000  Level FlightAware ADS-B
03:46PM 51.1518 2.2509 100° East 464 534 35,000  Level FlightAware ADS-B
03:46PM 51.1388 2.3674 100° East 465 535 35,000  Level FlightAware ADS-B
03:46PM 51.1388 2.3674 100° East 465 535 35,000  Level FlightAware ADS-B
03:47PM 51.1220 2.5120 100° East 467 537 35,000  Level FlightAware
03:47PM 51.1220 2.5120 100° East 467 537 35,000  Level FlightAware
03:48PM 51.1100 2.6188 100° East 472 543 35,000  Level FlightAware UK
03:48PM 51.1100 2.6188 100° East 472 543 35,000  Level FlightAware UK
03:48PM 51.1100 2.6190 100° East 467 537 35,000  Level FlightAware
03:48PM 51.1100 2.6190 100° East 467 537 35,000  Level FlightAware
03:48PM 51.0961 2.7403 100° East 474 545 35,000  Level FlightAware UK
03:48PM 51.0960 2.7400 100° East 467 537 35,000  Level FlightAware
03:48PM 51.0961 2.7403 100° East 474 545 35,000  Level FlightAware UK
03:48PM 51.0960 2.7400 100° East 467 537 35,000  Level FlightAware
03:49PM 51.0817 2.8617 100° East 472 543 35,000  Level FlightAware UK
03:49PM 51.0674 2.9834 101° East 474 545 35,000  Level FlightAware UK
03:50PM 51.0554 3.0849 101° East 478 550 35,000  Level FlightAware UK
03:51PM 51.0409 3.2070 101° East 478 550 35,000  Level FlightAware UK
03:51PM 51.0292 3.3080 100° East 476 548 35,000  Level FlightAware UK
03:52PM 51.0089 3.4680 101° East 476 548 35,000  Level FlightAware UK
03:52PM 50.9968 3.5682 101° East 476 548 35,000  Level FlightAware UK
03:53PM 50.9794 3.7078 101° East 476 548 35,000 -480 Level FlightAware UK
03:54PM 50.9619 3.8468 101° East 474 545 34,400 -1,200 Descending FlightAware UK
03:54PM 50.9434 3.9855 102° East 478 550 33,400 -1,380 Descending FlightAware UK
03:55PM 50.9252 4.1260 102° East 478 550 32,500 -1,440 Descending FlightAware UK
03:56PM 50.9041 4.2876 102° East 480 552 31,300 -1,380 Descending FlightAware UK
03:56PM 50.8905 4.3912 102° East 484 557 30,700 -1,200 Descending FlightAware UK
03:57PM 50.8774 4.4950 101° East 490 564 30,100 -960 Descending FlightAware UK
03:58PM 50.8617 4.6187 101° East 484 557 29,700 -600 Descending FlightAware UK
03:58PM 50.8496 4.7212 101° East 478 550 29,500 -420 Descending FlightAware UK
04:00PM 50.8545 5.0322 88° East  Level Estimated
04:07PM 50.8665 6.5172 89° East  Level Estimated
04:08PM 50.8667 6.7294 90° East  Level Estimated
04:09PM 50.8665 6.9416 90° East  Level Estimated
04:10PM 50.8659 7.1427 90° East  Level Estimated
04:11PM 50.8659 7.1427 140° Southeast  Level Estimated
04:12PM 50.8659 7.1427 140° Southeast  Level Estimated
04:13PM 50.8659 7.1427 140° Southeast  Level Estimated
04:14PM 50.8659 7.1427 140° Southeast  Level Estimated
04:15PM 50.8659 7.1427 140° Southeast  Level Estimated
04:16PM 50.8659 7.1427 140° Southeast  Level Estimated
04:17PM 50.8659 7.1427 140° Southeast  Level Estimated
04:18PM 50.8659 7.1427 140° Southeast  Level Estimated
04:19PM 50.8659 7.1427 140° Southeast  Level Estimated
04:20PM 50.8659 7.1427 140° Southeast  Level Estimated
04:21PM 50.8659 7.1427 140° Southeast  Level Estimated
04:22PM 50.8659 7.1427 140° Southeast  Level Estimated
04:23PM 50.8659 7.1427 140° Southeast  Level Estimated
04:24PM 50.8659 7.1427 140° Southeast  Level Estimated
04:25PM 50.8659 7.1427 140° Southeast  Level Estimated
04:26PM 50.8659 7.1427 140° Southeast  Level Estimated
04:27PM 50.8659 7.1427 140° Southeast  Level Estimated
04:28PM 50.8659 7.1427 140° Southeast  Level Estimated
04:29PM 50.8659 7.1427 140° Southeast  Level Estimated
04:30PM 50.8659 7.1427 140° Southeast  Level Estimated
04:31PM 50.8659 7.1427 140° Southeast  Level Estimated
04:32PM 50.8659 7.1427 140° Southeast  Level Estimated
04:33PM 50.8659 7.1427 140° Southeast  Level Estimated